Time,TemperatureF,DewpointF,PressureIn,WindDirection,WindDirectionDegrees,WindSpeedMPH,WindSpeedGustMPH,Humidity,HourlyPrecipIn,Conditions,Clouds,dailyrainin,SoftwareType,DateUTC
2013-05-04 00:01:00,65.1,40.2,29.96,SSW,206,11.5,11.5,40,0.00,CLR,,0.00,WeatherDisplay:10.37,2013-05-04 04:01:00,
2013-05-04 00:02:00,65.1,40.2,29.96,NE,51,11.0,11.0,40,0.00,CLR,,0.00,WeatherDisplay:10.37,2013-05-04 04:02:00,
2013-05-04 00:04:00,65.1,40.2,29.96,SSW,199,8.0,8.0,40,0.00,CLR,,0.00,WeatherDisplay:10.37,2013-05-04 04:04:00,
2013-05-04 00:09:00,65.0,39.4,29.96,SSE,155,10.0,10.0,39,0.00,CLR,,0.00,WeatherDisplay:10.37,2013-05-04 04:09:00,
2013-05-04 00:14:00,64.9,39.3,29.96,SSE,157,11.0,11.0,39,0.00,CLR,,0.00,WeatherDisplay:10.37,2013-05-04 04:14:00,
2013-05-04 00:19:00,64.7,39.2,29.96,SSE,152,8.0,8.0,39,0.00,CLR,,0.00,WeatherDisplay:10.37,2013-05-04 04:19:00,
2013-05-04 00:24:00,64.6,39.7,29.97,SSE,167,12.0,12.0,40,0.00,CLR,,0.00,WeatherDisplay:10.37,2013-05-04 04:24:00,
2013-05-04 00:29:00,64.5,39.6,29.97,SE,139,6.0,6.0,40,0.00,CLR,,0.00,WeatherDisplay:10.37,2013-05-04 04:29:00,
2013-05-04 00:34:00,64.4,39.5,29.97,SSE,168,5.8,5.8,40,0.00,CLR,,0.00,WeatherDisplay:10.37,2013-05-04 04:34:00,
2013-05-04 00:39:00,64.3,40.1,29.97,South,178,5.0,5.0,41,0.00,CLR,,0.00,WeatherDisplay:10.37,2013-05-04 04:39:00,
2013-05-04 00:44:00,64.2,40.0,29.97,SSE,165,6.0,6.0,41,0.00,CLR,,0.00,WeatherDisplay:10.37,2013-05-04 04:44:00,
2013-05-04 00:49:00,64.2,40.0,29.97,South,189,4.6,4.6,41,0.00,CLR,,0.00,WeatherDisplay:10.37,2013-05-04 04:49:00,
2013-05-04 00:54:00,64.2,40.6,29.97,SSE,152,5.0,5.0,42,0.00,CLR,,0.00,WeatherDisplay:10.37,2013-05-04 04:54:00,
2013-05-04 00:59:00,64.1,40.5,29.97,South,185,8.0,8.0,42,0.00,CLR,,0.00,WeatherDisplay:10.37,2013-05-04 04:59:00,
2013-05-04 01:04:00,64.0,41.0,29.97,SSE,167,5.0,5.0,43,0.00,CLR,,0.00,WeatherDisplay:10.37,2013-05-04 05:04:00,
2013-05-04 01:09:00,64.0,41.0,29.97,SSW,201,6.0,6.0,43,0.00,CLR,,0.00,WeatherDisplay:10.37,2013-05-04 05:09:00,
2013-05-04 01:14:00,63.9,41.0,29.97,SSE,168,5.8,5.8,43,0.00,CLR,,0.00,WeatherDisplay:10.37,2013-05-04 05:14:00,
2013-05-04 01:19:00,63.8,40.9,29.97,SSE,152,6.0,6.0,43,0.00,CLR,,0.00,WeatherDisplay:10.37,2013-05-04 05:19:00,
2013-05-04 01:24:00,63.7,41.4,29.97,South,190,5.0,5.0,44,0.00,CLR,,0.00,WeatherDisplay:10.37,2013-05-04 05:24:00,
2013-05-04 01:29:00,63.6,41.3,29.97,SSW,192,3.5,3.5,44,0.00,CLR,,0.00,WeatherDisplay:10.37,2013-05-04 05:29:00,
2013-05-04 01:34:00,63.5,41.2,29.97,South,189,3.5,3.5,44,0.00,CLR,,0.00,WeatherDisplay:10.37,2013-05-04 05:34:00,
2013-05-04 01:39:00,63.3,41.6,29.97,SSW,193,6.9,6.9,45,0.00,CLR,,0.00,WeatherDisplay:10.37,2013-05-04 05:39:00,
2013-05-04 01:44:00,63.1,41.4,29.97,SSE,168,2.3,2.3,45,0.00,CLR,,0.00,WeatherDisplay:10.37,2013-05-04 05:44:00,
2013-05-04 01:49:00,63.0,41.3,29.97,South,172,1.1,1.1,45,0.00,CLR,,0.00,WeatherDisplay:10.37,2013-05-04 05:49:00,
2013-05-04 01:54:00,62.9,41.2,29.97,South,178,5.8,5.8,45,0.00,CLR,,0.00,WeatherDisplay:10.37,2013-05-04 05:54:00,
2013-05-04 01:59:00,62.7,41.6,29.96,South,178,2.3,2.3,46,0.00,CLR,,0.00,WeatherDisplay:10.37,2013-05-04 05:59:00,
2013-05-04 02:04:00,62.4,41.3,29.97,South,172,8.1,8.1,46,0.00,CLR,,0.00,WeatherDisplay:10.37,2013-05-04 06:04:00,
2013-05-04 02:09:00,62.3,41.2,29.97,South,169,6.9,6.9,46,0.00,CLR,,0.00,WeatherDisplay:10.37,2013-05-04 06:09:00,
2013-05-04 02:14:00,62.2,41.2,29.97,South,170,4.0,4.0,46,0.00,CLR,,0.00,WeatherDisplay:10.37,2013-05-04 06:14:00,
2013-05-04 02:19:00,62.0,41.5,29.96,SSE,168,2.0,2.0,47,0.00,CLR,,0.00,WeatherDisplay:10.37,2013-05-04 06:19:00,
2013-05-04 02:24:00,61.9,41.4,29.96,South,176,4.6,4.6,47,0.00,CLR,,0.00,WeatherDisplay:10.37,2013-05-04 06:24:00,
2013-05-04 02:29:00,61.8,41.9,29.96,South,179,5.0,5.0,48,0.00,CLR,,0.00,WeatherDisplay:10.37,2013-05-04 06:29:00,
2013-05-04 02:34:00,61.6,41.7,29.96,South,185,6.0,6.0,48,0.00,CLR,,0.00,WeatherDisplay:10.37,2013-05-04 06:34:00,
2013-05-04 02:39:00,61.5,41.6,29.96,SSE,147,5.8,5.8,48,0.00,CLR,,0.00,WeatherDisplay:10.37,2013-05-04 06:39:00,
2013-05-04 02:44:00,61.4,42.1,29.96,SE,141,5.0,5.0,49,0.00,CLR,,0.00,WeatherDisplay:10.37,2013-05-04 06:44:00,
2013-05-04 02:49:00,61.3,42.0,29.96,WNW,290,5.8,5.8,49,0.00,CLR,,0.00,WeatherDisplay:10.37,2013-05-04 06:49:00,
2013-05-04 02:54:00,61.2,41.9,29.96,West,259,2.3,2.3,49,0.00,CLR,,0.00,WeatherDisplay:10.37,2013-05-04 06:54:00,
2013-05-04 02:59:00,61.1,42.3,29.96,South,186,6.0,6.0,50,0.00,CLR,,0.00,WeatherDisplay:10.37,2013-05-04 06:59:00,
2013-05-04 03:04:00,61.1,42.3,29.96,South,178,2.3,2.3,50,0.00,CLR,,0.00,WeatherDisplay:10.37,2013-05-04 07:04:00,
2013-05-04 03:09:00,61.0,42.2,29.96,South,178,2.3,0.0,50,0.00,CLR,,0.00,WeatherDisplay:10.37,2013-05-04 07:09:00,
2013-05-04 03:14:00,60.8,42.5,29.96,South,182,4.6,4.6,51,0.00,CLR,,0.00,WeatherDisplay:10.37,2013-05-04 07:14:00,
2013-05-04 03:19:00,60.7,43.0,29.96,South,180,3.5,3.5,52,0.00,CLR,,0.00,WeatherDisplay:10.37,2013-05-04 07:19:00,
2013-05-04 03:24:00,60.6,42.9,29.96,South,184,4.0,4.0,52,0.00,CLR,,0.00,WeatherDisplay:10.37,2013-05-04 07:24:00,
2013-05-04 03:29:00,60.5,43.3,29.96,South,183,3.5,3.5,53,0.00,CLR,,0.00,WeatherDisplay:10.37,2013-05-04 07:29:00,
2013-05-04 03:34:00,60.5,43.8,29.96,South,189,6.9,6.9,54,0.00,CLR,,0.00,WeatherDisplay:10.37,2013-05-04 07:34:00,
2013-05-04 03:39:00,60.5,43.8,29.96,South,188,2.3,2.3,54,0.00,CLR,,0.00,WeatherDisplay:10.37,2013-05-04 07:39:00,
2013-05-04 03:44:00,60.6,44.3,29.96,South,186,4.0,4.0,55,0.00,CLR,,0.00,WeatherDisplay:10.37,2013-05-04 07:44:00,
2013-05-04 03:49:00,60.5,44.2,29.95,South,185,2.3,0.0,55,0.00,CLR,,0.00,WeatherDisplay:10.37,2013-05-04 07:49:00,
2013-05-04 03:54:00,60.5,44.7,29.95,South,171,4.0,4.0,56,0.00,CLR,,0.00,WeatherDisplay:10.37,2013-05-04 07:54:00,
2013-05-04 03:59:00,60.5,44.7,29.95,South,178,4.0,4.0,56,0.00,CLR,,0.00,WeatherDisplay:10.37,2013-05-04 07:59:00,
2013-05-04 04:04:00,60.5,44.7,29.95,SSE,168,2.3,2.3,56,0.00,CLR,,0.00,WeatherDisplay:10.37,2013-05-04 08:04:00,
2013-05-04 04:09:00,60.4,45.1,29.95,SSE,167,1.1,1.1,57,0.00,CLR,,0.00,WeatherDisplay:10.37,2013-05-04 08:09:00,
2013-05-04 04:14:00,60.5,45.2,29.95,SSE,165,2.3,2.3,57,0.00,CLR,,0.00,WeatherDisplay:10.37,2013-05-04 08:14:00,
2013-05-04 04:19:00,60.4,45.1,29.95,SSE,163,4.0,4.0,57,0.00,CLR,,0.00,WeatherDisplay:10.37,2013-05-04 08:19:00,
2013-05-04 04:24:00,60.4,45.5,29.95,East,100,4.0,4.0,58,0.00,CLR,,0.00,WeatherDisplay:10.37,2013-05-04 08:24:00,
2013-05-04 04:29:00,60.3,45.5,29.95,ESE,108,4.0,4.0,58,0.00,CLR,,0.00,WeatherDisplay:10.37,2013-05-04 08:29:00,
2013-05-04 04:34:00,60.3,45.5,29.95,South,183,2.0,2.0,58,0.00,CLR,,0.00,WeatherDisplay:10.37,2013-05-04 08:34:00,
2013-05-04 04:39:00,60.3,45.5,29.95,South,175,4.6,4.6,58,0.00,CLR,,0.00,WeatherDisplay:10.37,2013-05-04 08:39:00,
2013-05-04 04:44:00,60.2,45.4,29.95,South,182,5.0,5.0,58,0.00,CLR,,0.00,WeatherDisplay:10.37,2013-05-04 08:44:00,
2013-05-04 04:49:00,60.1,45.3,29.95,North,2,6.0,6.0,58,0.00,CLR,,0.00,WeatherDisplay:10.37,2013-05-04 08:49:00,
2013-05-04 04:54:00,60.0,45.6,29.95,East,96,1.1,1.1,59,0.00,CLR,,0.00,WeatherDisplay:10.37,2013-05-04 08:54:00,
2013-05-04 04:59:00,59.8,45.4,29.95,South,187,4.0,4.0,59,0.00,CLR,,0.00,WeatherDisplay:10.37,2013-05-04 08:59:00,
2013-05-04 05:04:00,59.8,45.4,29.94,SE,135,7.0,7.0,59,0.00,CLR,,0.00,WeatherDisplay:10.37,2013-05-04 09:04:00,
2013-05-04 05:09:00,59.7,45.3,29.94,South,179,4.0,4.0,59,0.00,CLR,,0.00,WeatherDisplay:10.37,2013-05-04 09:09:00,
2013-05-04 05:14:00,59.6,45.2,29.94,SSE,156,6.9,6.9,59,0.00,CLR,,0.00,WeatherDisplay:10.37,2013-05-04 09:14:00,
2013-05-04 05:19:00,59.6,44.8,29.94,South,174,4.0,4.0,58,0.00,CLR,,0.00,WeatherDisplay:10.37,2013-05-04 09:19:00,
2013-05-04 05:24:00,59.5,45.2,29.94,South,184,4.0,4.0,59,0.00,CLR,,0.00,WeatherDisplay:10.37,2013-05-04 09:24:00,
2013-05-04 05:29:00,59.4,45.1,29.94,SSW,197,5.0,5.0,59,0.00,CLR,,0.00,WeatherDisplay:10.37,2013-05-04 09:29:00,
2013-05-04 05:34:00,59.1,44.8,29.94,South,175,8.0,8.0,59,0.00,CLR,,0.00,WeatherDisplay:10.37,2013-05-04 09:34:00,
2013-05-04 05:39:00,59.0,44.7,29.94,South,187,7.0,7.0,59,0.00,CLR,,0.00,WeatherDisplay:10.37,2013-05-04 09:39:00,
2013-05-04 05:44:00,59.0,44.7,29.94,NE,45,6.9,6.9,59,0.00,CLR,,0.00,WeatherDisplay:10.37,2013-05-04 09:44:00,
2013-05-04 05:49:00,59.0,44.7,29.94,South,182,4.6,4.6,59,0.00,CLR,,0.00,WeatherDisplay:10.37,2013-05-04 09:49:00,
2013-05-04 05:54:00,58.8,44.9,29.94,South,175,5.0,5.0,60,0.00,CLR,,0.00,WeatherDisplay:10.37,2013-05-04 09:54:00,
2013-05-04 05:59:00,58.5,44.7,29.94,SE,136,5.0,5.0,60,0.00,CLR,,0.00,WeatherDisplay:10.37,2013-05-04 09:59:00,
2013-05-04 06:04:00,58.3,44.9,29.94,SE,139,3.5,3.5,61,0.00,CLR,,0.00,WeatherDisplay:10.37,2013-05-04 10:04:00,
2013-05-04 06:09:00,58.1,44.7,29.94,SE,130,2.3,0.0,61,0.00,CLR,,0.00,WeatherDisplay:10.37,2013-05-04 10:09:00,
2013-05-04 06:14:00,58.0,44.6,29.94,SE,133,2.3,2.3,61,0.00,CLR,,0.00,WeatherDisplay:10.37,2013-05-04 10:14:00,
2013-05-04 06:19:00,57.8,44.9,29.94,SSE,148,1.1,1.1,62,0.00,CLR,,0.00,WeatherDisplay:10.37,2013-05-04 10:19:00,
2013-05-04 06:24:00,57.7,44.8,29.94,East,99,5.0,5.0,62,0.00,CLR,,0.00,WeatherDisplay:10.37,2013-05-04 10:24:00,
2013-05-04 06:29:00,57.7,44.8,29.95,SSE,147,6.0,6.0,62,0.00,CLR,,0.00,WeatherDisplay:10.37,2013-05-04 10:29:00,
2013-05-04 06:34:00,57.5,44.6,29.94,SW,221,5.0,5.0,62,0.00,CLR,,0.00,WeatherDisplay:10.37,2013-05-04 10:34:00,
2013-05-04 06:39:00,57.4,44.5,29.95,SSE,168,1.1,1.1,62,0.00,CLR,,0.00,WeatherDisplay:10.37,2013-05-04 10:39:00,
2013-05-04 06:44:00,57.4,44.5,29.95,SSW,200,2.3,2.3,62,0.00,CLR,,0.00,WeatherDisplay:10.37,2013-05-04 10:44:00,
2013-05-04 06:49:00,57.3,44.0,29.94,South,172,4.6,4.6,61,0.00,CLR,,0.00,WeatherDisplay:10.37,2013-05-04 10:49:00,
2013-05-04 06:54:00,57.2,43.9,29.95,South,182,5.0,5.0,61,0.00,CLR,,0.00,WeatherDisplay:10.37,2013-05-04 10:54:00,
2013-05-04 06:59:00,57.2,43.9,29.95,SSW,197,2.3,2.3,61,0.00,CLR,,0.00,WeatherDisplay:10.37,2013-05-04 10:59:00,
2013-05-04 07:04:00,57.1,43.8,29.95,NE,53,3.5,3.5,61,0.00,CLR,,0.00,WeatherDisplay:10.37,2013-05-04 11:04:00,
2013-05-04 07:09:00,57.1,43.8,29.95,South,171,4.0,4.0,61,0.00,CLR,,0.00,WeatherDisplay:10.37,2013-05-04 11:09:00,
2013-05-04 07:14:00,57.1,43.8,29.95,South,176,4.0,4.0,61,0.00,CLR,,0.00,WeatherDisplay:10.37,2013-05-04 11:14:00,
2013-05-04 07:19:00,57.2,43.4,29.95,SSE,162,4.0,4.0,60,0.00,CLR,,0.00,WeatherDisplay:10.37,2013-05-04 11:19:00,
2013-05-04 07:24:00,57.3,43.5,29.95,SE,142,5.0,5.0,60,0.00,CLR,,0.00,WeatherDisplay:10.37,2013-05-04 11:24:00,
2013-05-04 07:29:00,57.5,43.3,29.95,SSE,153,10.4,10.4,59,0.00,CLR,,0.00,WeatherDisplay:10.37,2013-05-04 11:29:00,
2013-05-04 07:34:00,57.6,43.4,29.95,SSE,166,4.0,4.0,59,0.00,CLR,,0.00,WeatherDisplay:10.37,2013-05-04 11:34:00,
2013-05-04 07:39:00,57.7,43.5,29.95,SW,234,5.0,5.0,59,0.00,CLR,,0.00,WeatherDisplay:10.37,2013-05-04 11:39:00,
2013-05-04 07:44:00,57.9,43.2,29.95,SSW,209,5.8,5.8,58,0.00,CLR,,0.00,WeatherDisplay:10.37,2013-05-04 11:44:00,
2013-05-04 07:49:00,58.0,43.3,29.95,SW,222,8.1,8.1,58,0.00,CLR,,0.00,WeatherDisplay:10.37,2013-05-04 11:49:00,
2013-05-04 07:55:00,58.2,43.0,29.95,South,190,2.0,8.0,57,0.00,CLR,,0.00,WeatherDisplay:10.37,2013-05-04 11:55:00,
2013-05-04 08:00:00,58.3,43.1,29.95,South,170,5.0,5.0,57,0.00,CLR,,0.00,WeatherDisplay:10.37,2013-05-04 12:00:00,
2013-05-04 08:05:00,58.5,42.8,29.95,SSE,162,9.2,9.2,56,0.00,FEW,,0.00,WeatherDisplay:10.37,2013-05-04 12:05:00,
2013-05-04 08:11:00,58.7,43.0,29.95,SE,124,3.5,3.5,56,0.00,FEW,,0.00,WeatherDisplay:10.37,2013-05-04 12:11:00,
2013-05-04 08:16:00,58.7,43.0,29.95,SSE,167,4.0,4.0,56,0.00,FEW,,0.00,WeatherDisplay:10.37,2013-05-04 12:16:00,
2013-05-04 08:21:00,58.9,42.3,29.95,South,179,8.0,8.0,54,0.00,FEW,,0.00,WeatherDisplay:10.37,2013-05-04 12:21:00,
2013-05-04 08:26:00,59.0,42.8,29.95,SSW,196,5.8,5.8,55,0.00,FEW,,0.00,WeatherDisplay:10.37,2013-05-04 12:26:00,
2013-05-04 08:31:00,59.0,42.4,29.95,South,174,6.0,6.0,54,0.00,FEW,,0.00,WeatherDisplay:10.37,2013-05-04 12:31:00,
2013-05-04 08:36:00,59.4,42.7,29.95,SSE,159,5.0,5.0,54,0.00,FEW,,0.00,WeatherDisplay:10.37,2013-05-04 12:36:00,
2013-05-04 08:41:00,59.9,42.7,29.95,NE,41,6.0,6.0,53,0.00,FEW,,0.00,WeatherDisplay:10.37,2013-05-04 12:41:00,
2013-05-04 08:46:00,60.2,42.0,29.95,ESE,109,7.0,7.0,51,0.00,FEW,,0.00,WeatherDisplay:10.37,2013-05-04 12:46:00,
2013-05-04 08:51:00,60.5,41.8,29.95,South,185,8.1,8.1,50,0.00,FEW,,0.00,WeatherDisplay:10.37,2013-05-04 12:51:00,
2013-05-04 08:56:00,60.8,41.0,29.95,South,182,8.1,8.1,48,0.00,FEW,,0.00,WeatherDisplay:10.37,2013-05-04 12:56:00,
2013-05-04 09:01:00,60.6,40.8,29.95,SSW,212,4.6,4.6,48,0.00,SCT,,0.00,WeatherDisplay:10.37,2013-05-04 13:01:00,
2013-05-04 09:06:00,60.4,40.6,29.95,SSE,168,8.1,8.1,48,0.00,SCT,,0.00,WeatherDisplay:10.37,2013-05-04 13:06:00,
2013-05-04 09:11:00,60.2,40.4,29.95,SSE,167,6.0,6.0,48,0.00,SCT,,0.00,WeatherDisplay:10.37,2013-05-04 13:11:00,
2013-05-04 09:16:00,60.0,40.8,29.95,SSW,203,3.5,3.5,49,0.00,SCT,,0.00,WeatherDisplay:10.37,2013-05-04 13:16:00,
2013-05-04 09:21:00,60.0,40.2,29.95,SSW,205,6.0,6.0,48,0.00,SCT,,0.00,WeatherDisplay:10.37,2013-05-04 13:21:00,
2013-05-04 09:26:00,60.1,39.8,29.95,SSE,157,11.0,11.0,47,0.00,SCT,,0.00,WeatherDisplay:10.37,2013-05-04 13:26:00,
2013-05-04 09:31:00,60.2,39.9,29.95,SSW,199,8.1,8.1,47,0.00,SCT,,0.00,WeatherDisplay:10.37,2013-05-04 13:31:00,
2013-05-04 09:36:00,60.1,39.8,29.95,SSE,163,6.9,6.9,47,0.00,SCT,,0.00,WeatherDisplay:10.37,2013-05-04 13:36:00,
2013-05-04 09:41:00,60.0,42.8,29.95,South,171,2.0,2.0,53,0.00,SCT,,0.00,WeatherDisplay:10.37,2013-05-04 13:41:00,
2013-05-04 09:46:00,59.7,43.5,29.95,South,174,1.0,0.0,55,0.00,SCT,,0.00,WeatherDisplay:10.37,2013-05-04 13:46:00,
2013-05-04 09:51:00,59.3,41.7,29.95,SSE,160,4.0,4.0,52,0.00,SCT,,0.00,WeatherDisplay:10.37,2013-05-04 13:51:00,
2013-05-04 09:56:00,59.0,41.9,29.95,SSE,160,6.0,6.0,53,0.00,SCT,,0.00,WeatherDisplay:10.37,2013-05-04 13:56:00,
2013-05-04 10:01:00,58.9,42.3,29.95,SSE,149,11.5,11.5,54,0.00,SCT,,0.00,WeatherDisplay:10.37,2013-05-04 14:01:00,
2013-05-04 10:06:00,58.0,43.3,29.96,South,188,3.0,3.0,58,0.00,SCT,,0.00,WeatherDisplay:10.37,2013-05-04 14:06:00,
2013-05-04 10:11:00,57.4,43.2,29.96,SSW,193,3.5,3.5,59,0.00,SCT,,0.00,WeatherDisplay:10.37,2013-05-04 14:11:00,
2013-05-04 10:16:00,57.5,42.4,29.96,South,180,7.0,7.0,57,0.00,SCT,,0.00,WeatherDisplay:10.37,2013-05-04 14:16:00,
2013-05-04 10:21:00,57.7,42.1,29.96,South,186,11.0,11.0,56,0.01,RA,,0.01,WeatherDisplay:10.37,2013-05-04 14:21:00,
2013-05-04 10:26:00,58.0,41.9,29.96,South,176,17.3,17.3,55,0.01,RA,,0.01,WeatherDisplay:10.37,2013-05-04 14:26:00,
2013-05-04 10:31:00,58.4,42.8,29.96,South,186,4.6,0.0,56,0.01,SCT,,0.01,WeatherDisplay:10.37,2013-05-04 14:31:00,
2013-05-04 10:36:00,59.0,41.9,29.96,SW,229,6.0,6.0,53,0.01,SCT,,0.01,WeatherDisplay:10.37,2013-05-04 14:36:00,
2013-05-04 10:41:00,59.9,42.2,29.96,South,182,5.8,5.8,52,0.01,SCT,,0.01,WeatherDisplay:10.37,2013-05-04 14:41:00,
2013-05-04 10:46:00,60.4,42.2,29.96,South,186,8.1,8.1,51,0.01,SCT,,0.01,WeatherDisplay:10.37,2013-05-04 14:46:00,
2013-05-04 10:51:00,60.7,41.9,29.96,South,169,5.0,5.0,50,0.01,SCT,,0.01,WeatherDisplay:10.37,2013-05-04 14:51:00,
2013-05-04 10:56:00,61.0,40.6,29.96,SSE,168,7.0,7.0,47,0.01,SCT,,0.01,WeatherDisplay:10.37,2013-05-04 14:56:00,
2013-05-04 11:01:00,61.7,40.1,29.96,South,187,9.0,9.0,45,0.01,SCT,,0.01,WeatherDisplay:10.37,2013-05-04 15:01:00,
2013-05-04 11:06:00,62.0,39.8,29.96,SSE,147,5.0,5.0,44,0.01,SCT,,0.01,WeatherDisplay:10.37,2013-05-04 15:06:00,
2013-05-04 11:11:00,62.5,40.9,29.96,SSE,163,2.3,2.3,45,0.01,SCT,,0.01,WeatherDisplay:10.37,2013-05-04 15:11:00,
2013-05-04 11:16:00,62.9,40.0,29.96,SSE,160,9.0,9.0,43,0.01,SCT,,0.01,WeatherDisplay:10.37,2013-05-04 15:16:00,
2013-05-04 11:21:00,63.0,39.5,29.96,South,169,8.0,8.0,42,0.00,SCT,,0.01,WeatherDisplay:10.37,2013-05-04 15:21:00,
2013-05-04 11:26:00,63.2,39.7,29.96,SSW,193,4.0,4.0,42,0.00,SCT,,0.01,WeatherDisplay:10.37,2013-05-04 15:26:00,
2013-05-04 11:31:00,63.4,39.9,29.96,SSW,195,4.0,4.0,42,0.00,SCT,,0.01,WeatherDisplay:10.37,2013-05-04 15:31:00,
2013-05-04 11:36:00,63.4,40.5,29.96,South,180,4.6,4.6,43,0.00,SCT,,0.01,WeatherDisplay:10.37,2013-05-04 15:36:00,
2013-05-04 11:41:00,63.7,40.2,29.96,South,182,5.0,5.0,42,0.00,SCT,,0.01,WeatherDisplay:10.37,2013-05-04 15:41:00,
2013-05-04 11:46:00,64.6,40.4,29.96,South,186,8.1,8.1,41,0.00,SCT,,0.01,WeatherDisplay:10.37,2013-05-04 15:46:00,
2013-05-04 11:51:00,65.3,40.3,29.95,NNE,33,6.0,6.0,40,0.00,SCT,,0.01,WeatherDisplay:10.37,2013-05-04 15:51:00,
2013-05-04 11:56:00,65.9,42.1,29.95,South,188,8.1,8.1,42,0.00,SCT,,0.01,WeatherDisplay:10.37,2013-05-04 15:56:00,
2013-05-04 12:01:00,66.1,40.4,29.95,SSW,193,8.1,8.1,39,0.00,FEW,,0.01,WeatherDisplay:10.37,2013-05-04 16:01:00,
2013-05-04 12:06:00,65.8,40.8,29.95,South,174,5.0,5.0,40,0.00,FEW,,0.01,WeatherDisplay:10.37,2013-05-04 16:06:00,
2013-05-04 12:11:00,66.1,40.4,29.95,South,175,8.0,8.0,39,0.00,FEW,,0.01,WeatherDisplay:10.37,2013-05-04 16:11:00,
2013-05-04 12:16:00,66.4,40.7,29.95,SSW,196,8.1,8.1,39,0.00,FEW,,0.01,WeatherDisplay:10.37,2013-05-04 16:16:00,
2013-05-04 12:21:00,66.5,41.4,29.95,South,187,5.8,5.8,40,0.00,FEW,,0.01,WeatherDisplay:10.37,2013-05-04 16:21:00,
2013-05-04 12:26:00,66.3,40.6,29.95,South,191,3.5,3.5,39,0.00,FEW,,0.01,WeatherDisplay:10.37,2013-05-04 16:26:00,
2013-05-04 12:31:00,66.4,40.7,29.95,SSW,199,10.4,10.4,39,0.00,FEW,,0.01,WeatherDisplay:10.37,2013-05-04 16:31:00,
2013-05-04 12:36:00,66.4,42.6,29.95,South,172,1.1,1.1,42,0.00,FEW,,0.01,WeatherDisplay:10.37,2013-05-04 16:36:00,
2013-05-04 12:41:00,67.2,42.0,29.95,South,187,11.5,11.5,40,0.00,FEW,,0.01,WeatherDisplay:10.37,2013-05-04 16:41:00,
2013-05-04 12:46:00,67.6,42.4,29.95,South,191,3.0,3.0,40,0.00,FEW,,0.01,WeatherDisplay:10.37,2013-05-04 16:46:00,
2013-05-04 12:51:00,68.0,42.1,29.95,SSW,193,9.2,9.2,39,0.00,FEW,,0.01,WeatherDisplay:10.37,2013-05-04 16:51:00,
2013-05-04 12:56:00,68.0,42.8,29.95,SSW,203,10.4,10.4,40,0.00,FEW,,0.01,WeatherDisplay:10.37,2013-05-04 16:56:00,
2013-05-04 13:01:00,67.9,44.6,29.95,ENE,67,6.0,6.0,43,0.00,BKN,,0.01,WeatherDisplay:10.37,2013-05-04 17:01:00,
2013-05-04 13:06:00,67.7,42.5,29.95,ENE,68,6.0,6.0,40,0.00,BKN,,0.01,WeatherDisplay:10.37,2013-05-04 17:06:00,
2013-05-04 13:11:00,67.4,42.2,29.95,South,176,5.0,5.0,40,0.00,BKN,,0.01,WeatherDisplay:10.37,2013-05-04 17:11:00,
2013-05-04 13:16:00,67.6,42.4,29.95,South,172,7.0,7.0,40,0.00,BKN,,0.01,WeatherDisplay:10.37,2013-05-04 17:16:00,
2013-05-04 13:21:00,67.3,42.1,29.95,South,178,10.4,10.4,40,0.00,BKN,,0.01,WeatherDisplay:10.37,2013-05-04 17:21:00,
2013-05-04 13:26:00,67.4,43.5,29.94,South,191,5.0,5.0,42,0.00,BKN,,0.01,WeatherDisplay:10.37,2013-05-04 17:26:00,
2013-05-04 13:31:00,68.0,44.0,29.94,SSE,166,6.9,6.9,42,0.00,BKN,,0.01,WeatherDisplay:10.37,2013-05-04 17:31:00,
2013-05-04 13:36:00,68.1,42.9,29.94,SSW,193,8.1,8.1,40,0.00,BKN,,0.01,WeatherDisplay:10.37,2013-05-04 17:36:00,
2013-05-04 13:41:00,68.4,43.1,29.94,SSW,196,3.5,3.5,40,0.00,BKN,,0.01,WeatherDisplay:10.37,2013-05-04 17:41:00,
2013-05-04 13:46:00,68.9,44.2,29.94,South,180,2.3,2.3,41,0.00,BKN,,0.01,WeatherDisplay:10.37,2013-05-04 17:46:00,
2013-05-04 13:51:00,69.2,44.5,29.94,SSE,164,7.0,7.0,41,0.00,BKN,,0.01,WeatherDisplay:10.37,2013-05-04 17:51:00,
2013-05-04 13:56:00,69.9,45.8,29.94,SSW,199,6.9,6.9,42,0.00,BKN,,0.01,WeatherDisplay:10.37,2013-05-04 17:56:00,
2013-05-04 14:01:00,70.7,45.8,29.94,SSE,151,5.8,5.8,41,0.00,BKN,,0.01,WeatherDisplay:10.37,2013-05-04 18:01:00,
2013-05-04 14:06:00,71.1,44.9,29.94,West,264,3.5,3.5,39,0.00,BKN,,0.01,WeatherDisplay:10.37,2013-05-04 18:06:00,
2013-05-04 14:11:00,71.6,44.6,29.93,SSW,194,4.0,4.0,38,0.00,BKN,,0.01,WeatherDisplay:10.37,2013-05-04 18:11:00,
2013-05-04 14:16:00,72.0,47.6,29.94,South,178,8.1,8.1,42,0.00,BKN,,0.01,WeatherDisplay:10.37,2013-05-04 18:16:00,
2013-05-04 14:21:00,71.9,45.6,29.93,South,170,5.0,5.0,39,0.00,BKN,,0.01,WeatherDisplay:10.37,2013-05-04 18:21:00,
2013-05-04 14:26:00,70.9,44.7,29.94,South,189,6.0,6.0,39,0.00,BKN,,0.01,WeatherDisplay:10.37,2013-05-04 18:26:00,
2013-05-04 14:31:00,70.9,46.0,29.94,South,182,1.1,1.1,41,0.00,BKN,,0.01,WeatherDisplay:10.37,2013-05-04 18:31:00,
2013-05-04 14:36:00,69.5,44.8,29.94,SW,222,6.9,6.9,41,0.00,BKN,,0.01,WeatherDisplay:10.37,2013-05-04 18:36:00,
2013-05-04 14:41:00,69.2,46.4,29.94,South,173,7.0,7.0,44,0.00,BKN,,0.01,WeatherDisplay:10.37,2013-05-04 18:41:00,
2013-05-04 14:46:00,69.3,45.2,29.94,SSE,155,4.0,4.0,42,0.00,BKN,,0.01,WeatherDisplay:10.37,2013-05-04 18:46:00,
2013-05-04 14:51:00,69.5,45.4,29.94,South,174,7.0,7.0,42,0.00,BKN,,0.01,WeatherDisplay:10.37,2013-05-04 18:51:00,
2013-05-04 14:56:00,69.7,46.8,29.94,South,185,1.1,0.0,44,0.00,BKN,,0.01,WeatherDisplay:10.37,2013-05-04 18:56:00,
2013-05-04 15:01:00,69.9,46.4,29.94,South,185,2.3,2.3,43,0.00,CLR,,0.01,WeatherDisplay:10.37,2013-05-04 19:01:00,
2013-05-04 15:06:00,70.4,46.8,29.94,South,187,5.0,5.0,43,0.00,CLR,,0.01,WeatherDisplay:10.37,2013-05-04 19:06:00,
2013-05-04 15:11:00,70.1,45.9,29.94,SSW,203,3.5,3.5,42,0.00,CLR,,0.01,WeatherDisplay:10.37,2013-05-04 19:11:00,
2013-05-04 15:16:00,70.5,46.9,29.93,South,191,5.0,5.0,43,0.00,CLR,,0.01,WeatherDisplay:10.37,2013-05-04 19:16:00,
2013-05-04 15:21:00,71.6,47.9,29.93,SSW,192,1.1,1.1,43,0.00,CLR,,0.01,WeatherDisplay:10.37,2013-05-04 19:21:00,
2013-05-04 15:26:00,72.9,47.8,29.93,SSW,198,3.5,3.5,41,0.00,CLR,,0.01,WeatherDisplay:10.37,2013-05-04 19:26:00,
2013-05-04 15:31:00,72.4,47.4,29.93,SSW,195,6.9,6.9,41,0.00,CLR,,0.01,WeatherDisplay:10.37,2013-05-04 19:31:00,
2013-05-04 15:36:00,72.0,47.6,29.93,SSE,157,8.1,8.1,42,0.00,CLR,,0.01,WeatherDisplay:10.37,2013-05-04 19:36:00,
2013-05-04 15:41:00,72.3,47.3,29.93,SSW,201,8.0,8.0,41,0.00,CLR,,0.01,WeatherDisplay:10.37,2013-05-04 19:41:00,
2013-05-04 15:46:00,72.9,47.8,29.92,SSW,198,6.0,6.0,41,0.00,CLR,,0.01,WeatherDisplay:10.37,2013-05-04 19:46:00,
2013-05-04 15:51:00,73.0,49.8,29.92,SW,214,5.0,5.0,44,0.00,CLR,,0.01,WeatherDisplay:10.37,2013-05-04 19:51:00,
2013-05-04 15:56:00,70.6,50.0,29.92,SW,222,3.0,3.0,48,0.00,CLR,,0.01,WeatherDisplay:10.37,2013-05-04 19:56:00,
2013-05-04 16:01:00,69.2,50.8,29.92,West,262,9.0,9.0,52,0.00,CLR,,0.01,WeatherDisplay:10.37,2013-05-04 20:01:00,
2013-05-04 16:06:00,68.6,50.8,29.92,WNW,288,6.9,6.9,53,0.00,CLR,,0.01,WeatherDisplay:10.37,2013-05-04 20:06:00,
2013-05-04 16:11:00,68.7,51.4,29.92,WNW,297,5.0,5.0,54,0.00,CLR,,0.01,WeatherDisplay:10.37,2013-05-04 20:11:00,
2013-05-04 16:16:00,68.5,51.2,29.92,NNE,12,7.0,7.0,54,0.00,CLR,,0.01,WeatherDisplay:10.37,2013-05-04 20:16:00,
2013-05-04 16:21:00,67.3,50.1,29.92,WNW,303,7.0,7.0,54,0.00,CLR,,0.01,WeatherDisplay:10.37,2013-05-04 20:21:00,
2013-05-04 16:26:00,66.3,50.1,29.92,West,272,4.6,4.6,56,0.00,CLR,,0.01,WeatherDisplay:10.37,2013-05-04 20:26:00,
2013-05-04 16:31:00,66.1,51.4,29.92,West,264,6.0,6.0,59,0.00,CLR,,0.01,WeatherDisplay:10.37,2013-05-04 20:31:00,
2013-05-04 16:36:00,66.1,51.4,29.92,NW,304,4.0,4.0,59,0.00,CLR,,0.01,WeatherDisplay:10.37,2013-05-04 20:36:00,
2013-05-04 16:41:00,66.0,51.7,29.92,West,280,9.0,9.0,60,0.00,CLR,,0.01,WeatherDisplay:10.37,2013-05-04 20:41:00,
2013-05-04 16:46:00,65.0,51.2,29.92,WNW,295,10.4,10.4,61,0.00,CLR,,0.01,WeatherDisplay:10.37,2013-05-04 20:46:00,
2013-05-04 16:51:00,64.2,50.9,29.92,West,261,11.5,11.5,62,0.00,CLR,,0.01,WeatherDisplay:10.37,2013-05-04 20:51:00,
2013-05-04 16:56:00,63.8,51.0,29.92,WNW,284,9.2,9.2,63,0.00,CLR,,0.01,WeatherDisplay:10.37,2013-05-04 20:56:00,
2013-05-04 17:01:00,63.9,50.6,29.92,WNW,283,10.4,10.4,62,0.00,FEW,,0.01,WeatherDisplay:10.37,2013-05-04 21:01:00,
2013-05-04 17:06:00,64.2,51.3,29.92,WSW,245,8.1,8.1,63,0.00,FEW,,0.01,WeatherDisplay:10.37,2013-05-04 21:06:00,
2013-05-04 17:11:00,64.3,51.9,29.92,NW,317,5.0,5.0,64,0.00,FEW,,0.01,WeatherDisplay:10.37,2013-05-04 21:11:00,
2013-05-04 17:16:00,63.4,51.4,29.92,West,272,11.5,11.5,65,0.00,FEW,,0.01,WeatherDisplay:10.37,2013-05-04 21:16:00,
2013-05-04 17:21:00,63.3,51.7,29.92,WNW,282,9.2,9.2,66,0.00,FEW,,0.01,WeatherDisplay:10.37,2013-05-04 21:21:00,
2013-05-04 17:26:00,62.7,51.2,29.92,WNW,295,7.0,7.0,66,0.00,FEW,,0.01,WeatherDisplay:10.37,2013-05-04 21:26:00,
2013-05-04 17:31:00,61.9,50.8,29.92,NW,326,8.1,8.1,67,0.00,FEW,,0.01,WeatherDisplay:10.37,2013-05-04 21:31:00,
2013-05-04 17:36:00,60.9,50.3,29.92,WNW,300,11.5,11.5,68,0.00,FEW,,0.01,WeatherDisplay:10.37,2013-05-04 21:36:00,
2013-05-04 17:41:00,60.5,49.9,29.92,West,261,5.0,5.0,68,0.00,FEW,,0.01,WeatherDisplay:10.37,2013-05-04 21:41:00,
2013-05-04 17:46:00,60.3,50.1,29.92,WNW,293,5.0,5.0,69,0.00,FEW,,0.01,WeatherDisplay:10.37,2013-05-04 21:46:00,
2013-05-04 17:51:00,60.2,50.4,29.92,West,263,10.4,10.4,70,0.00,FEW,,0.01,WeatherDisplay:10.37,2013-05-04 21:51:00,
2013-05-04 17:56:00,60.0,50.2,29.92,WSW,253,9.2,9.2,70,0.00,FEW,,0.01,WeatherDisplay:10.37,2013-05-04 21:56:00,
2013-05-04 18:01:00,59.4,50.0,29.92,West,259,8.1,8.1,71,0.00,BKN,,0.01,WeatherDisplay:10.37,2013-05-04 22:01:00,
2013-05-04 18:06:00,59.0,49.6,29.92,WSW,253,8.1,8.1,71,0.00,BKN,,0.01,WeatherDisplay:10.37,2013-05-04 22:06:00,
2013-05-04 18:11:00,58.8,49.8,29.92,WNW,303,7.0,7.0,72,0.00,BKN,,0.01,WeatherDisplay:10.37,2013-05-04 22:11:00,
2013-05-04 18:16:00,58.5,49.5,29.92,WSW,256,5.0,5.0,72,0.00,BKN,,0.01,WeatherDisplay:10.37,2013-05-04 22:16:00,
2013-05-04 18:21:00,58.3,49.3,29.93,West,275,3.5,3.5,72,0.00,BKN,,0.01,WeatherDisplay:10.37,2013-05-04 22:21:00,
2013-05-04 18:26:00,58.2,49.6,29.93,West,278,3.5,3.5,73,0.00,BKN,,0.01,WeatherDisplay:10.37,2013-05-04 22:26:00,
2013-05-04 18:31:00,58.1,49.5,29.93,West,274,4.0,4.0,73,0.00,BKN,,0.01,WeatherDisplay:10.37,2013-05-04 22:31:00,
2013-05-04 18:36:00,57.7,49.8,29.94,West,267,7.0,7.0,75,0.00,BKN,,0.01,WeatherDisplay:10.37,2013-05-04 22:36:00,
2013-05-04 18:41:00,57.3,50.1,29.94,NW,305,6.0,6.0,77,0.01,RA,,0.02,WeatherDisplay:10.37,2013-05-04 22:41:00,
2013-05-04 18:46:00,56.7,49.6,29.95,NW,306,3.0,3.0,77,0.01,RA,,0.02,WeatherDisplay:10.37,2013-05-04 22:46:00,
2013-05-04 18:51:00,56.3,49.9,29.95,NW,305,3.5,3.5,79,0.01,BKN,,0.02,WeatherDisplay:10.37,2013-05-04 22:51:00,
2013-05-04 18:56:00,56.0,49.9,29.96,West,278,6.0,6.0,80,0.03,RA,,0.04,WeatherDisplay:10.37,2013-05-04 22:56:00,
2013-05-04 19:01:00,55.6,50.2,29.96,WSW,239,8.0,8.0,82,0.04,RA,,0.05,WeatherDisplay:10.37,2013-05-04 23:01:00,
2013-05-04 19:06:00,55.3,50.2,29.96,SW,232,4.0,4.0,83,0.05,RA,,0.07,WeatherDisplay:10.37,2013-05-04 23:06:00,
2013-05-04 19:11:00,55.3,50.5,29.96,SW,232,2.0,2.0,84,0.09,RA,,0.11,WeatherDisplay:10.37,2013-05-04 23:11:00,
2013-05-04 19:16:00,55.1,50.4,29.95,SW,232,2.3,2.3,84,0.11,RA,,0.12,WeatherDisplay:10.37,2013-05-04 23:16:00,
2013-05-04 19:21:00,54.9,50.5,29.95,SW,233,2.3,2.3,85,0.12,RA,,0.13,WeatherDisplay:10.37,2013-05-04 23:21:00,
2013-05-04 19:26:00,54.7,50.6,29.95,SW,236,2.3,2.3,86,0.12,RA,,0.13,WeatherDisplay:10.37,2013-05-04 23:26:00,
2013-05-04 19:31:00,54.6,50.5,29.96,SW,236,2.3,0.0,86,0.12,BKN,,0.13,WeatherDisplay:10.37,2013-05-04 23:31:00,
2013-05-04 19:36:00,54.5,50.4,29.97,SW,236,1.1,1.1,86,0.12,BKN,,0.13,WeatherDisplay:10.37,2013-05-04 23:36:00,
2013-05-04 19:41:00,54.6,50.5,29.97,SW,236,1.1,0.0,86,0.11,BKN,,0.13,WeatherDisplay:10.37,2013-05-04 23:41:00,
2013-05-04 19:46:00,54.4,50.3,29.97,SW,236,0.0,0.0,86,0.11,BKN,,0.13,WeatherDisplay:10.37,2013-05-04 23:46:00,
2013-05-04 19:51:00,54.2,50.1,29.97,SW,236,2.0,2.0,86,0.12,RA,,0.14,WeatherDisplay:10.37,2013-05-04 23:51:00,
2013-05-04 19:56:00,54.2,50.1,29.97,SW,236,1.1,1.1,86,0.11,RA,,0.15,WeatherDisplay:10.37,2013-05-04 23:56:00,
2013-05-04 20:01:00,54.2,50.1,29.96,SW,236,2.0,2.0,86,0.10,RA,,0.15,WeatherDisplay:10.37,2013-05-05 00:01:00,
2013-05-04 20:06:00,54.3,50.5,29.97,SW,236,2.3,2.3,87,0.10,RA,,0.16,WeatherDisplay:10.37,2013-05-05 00:06:00,
2013-05-04 20:11:00,54.2,50.4,29.97,SW,236,2.0,2.0,87,0.06,RA,,0.16,WeatherDisplay:10.37,2013-05-05 00:11:00,
2013-05-04 20:16:00,54.2,50.4,29.98,SW,236,3.5,3.5,87,0.04,OVC,,0.16,WeatherDisplay:10.37,2013-05-05 00:16:00,
2013-05-04 20:21:00,54.3,50.5,29.98,SW,236,3.5,3.5,87,0.03,OVC,,0.17,WeatherDisplay:10.37,2013-05-05 00:21:00,
2013-05-04 20:26:00,54.3,50.5,29.98,SW,236,1.0,0.0,87,0.04,RA,,0.17,WeatherDisplay:10.37,2013-05-05 00:26:00,
2013-05-04 20:31:00,54.2,50.7,29.98,SW,236,3.5,3.5,88,0.05,RA,,0.18,WeatherDisplay:10.37,2013-05-05 00:31:00,
2013-05-04 20:36:00,54.2,50.7,29.99,SW,236,3.5,3.5,88,0.05,RA,,0.18,WeatherDisplay:10.37,2013-05-05 00:36:00,
2013-05-04 20:41:00,54.1,50.6,29.99,SW,236,2.3,2.3,88,0.05,OVC,,0.18,WeatherDisplay:10.37,2013-05-05 00:41:00,
2013-05-04 20:46:00,54.0,50.5,29.99,SW,236,3.5,3.5,88,0.06,RA,,0.19,WeatherDisplay:10.37,2013-05-05 00:46:00,
2013-05-04 20:51:00,54.0,50.5,29.99,SW,236,3.0,3.0,88,0.06,RA,,0.20,WeatherDisplay:10.37,2013-05-05 00:51:00,
2013-05-04 20:56:00,53.9,50.4,30.00,SW,236,0.0,0.0,88,0.06,RA,,0.21,WeatherDisplay:10.37,2013-05-05 00:56:00,
2013-05-04 21:01:00,53.9,50.4,29.99,SW,236,3.5,3.5,88,0.07,-RA,,0.22,WeatherDisplay:10.37,2013-05-05 01:01:00,
2013-05-04 21:06:00,53.9,50.4,30.00,SW,236,0.0,0.0,88,0.07,-RA,,0.23,WeatherDisplay:10.37,2013-05-05 01:06:00,
2013-05-04 21:11:00,53.9,50.4,29.99,SW,236,3.0,3.0,88,0.07,-RA,,0.23,WeatherDisplay:10.37,2013-05-05 01:11:00,
2013-05-04 21:16:00,53.9,50.7,30.00,SW,236,3.5,3.5,89,0.08,-RA,,0.24,WeatherDisplay:10.37,2013-05-05 01:16:00,
2013-05-04 21:21:00,53.7,50.5,30.00,SW,236,0.0,0.0,89,0.08,-RA,,0.25,WeatherDisplay:10.37,2013-05-05 01:21:00,
2013-05-04 21:26:00,53.7,50.5,30.00,SW,236,2.0,2.0,89,0.09,-RA,,0.26,WeatherDisplay:10.37,2013-05-05 01:26:00,
2013-05-04 21:31:00,53.7,50.5,29.99,SW,236,0.0,0.0,89,0.09,-RA,,0.27,WeatherDisplay:10.37,2013-05-05 01:31:00,
2013-05-04 21:36:00,53.7,50.5,29.99,SW,236,4.0,4.0,89,0.10,-RA,,0.28,WeatherDisplay:10.37,2013-05-05 01:36:00,
2013-05-04 21:41:00,53.6,50.4,29.99,NNW,338,4.6,4.6,89,0.10,-RA,,0.28,WeatherDisplay:10.37,2013-05-05 01:41:00,
2013-05-04 21:46:00,53.6,50.4,29.99,North,2,3.5,3.5,89,0.10,-RA,,0.29,WeatherDisplay:10.37,2013-05-05 01:46:00,
2013-05-04 21:51:00,53.6,50.4,30.00,North,2,3.0,3.0,89,0.09,-RA,,0.30,WeatherDisplay:10.37,2013-05-05 01:51:00,
2013-05-04 21:56:00,53.6,50.4,30.00,North,2,2.3,2.3,89,0.09,-RA,,0.30,WeatherDisplay:10.37,2013-05-05 01:56:00,
2013-05-04 22:01:00,53.6,50.4,30.00,North,2,3.5,3.5,89,0.08,-RA,,0.30,WeatherDisplay:10.37,2013-05-05 02:01:00,
2013-05-04 22:06:00,53.6,50.4,30.00,North,2,4.6,4.6,89,0.07,-RA,,0.30,WeatherDisplay:10.37,2013-05-05 02:06:00,
2013-05-04 22:11:00,53.6,50.4,30.00,North,2,2.3,2.3,89,0.07,-RA,,0.31,WeatherDisplay:10.37,2013-05-05 02:11:00,
2013-05-04 22:16:00,53.6,50.4,30.00,North,2,3.5,3.5,89,0.07,-RA,,0.31,WeatherDisplay:10.37,2013-05-05 02:16:00,
2013-05-04 22:21:00,53.6,50.4,30.00,North,2,0.0,0.0,89,0.07,-RA,,0.32,WeatherDisplay:10.37,2013-05-05 02:21:00,
2013-05-04 22:26:00,53.5,50.3,30.00,North,2,1.1,1.1,89,0.06,-RA,,0.32,WeatherDisplay:10.37,2013-05-05 02:26:00,
2013-05-04 22:31:00,53.5,50.3,30.01,North,2,3.5,0.0,89,0.05,-RA,,0.32,WeatherDisplay:10.37,2013-05-05 02:31:00,
2013-05-04 22:36:00,53.5,50.3,30.01,North,2,2.3,0.0,89,0.04,-RA,,0.32,WeatherDisplay:10.37,2013-05-05 02:36:00,
2013-05-04 22:41:00,53.5,50.3,30.01,North,2,1.1,1.1,89,0.05,-RA,,0.33,WeatherDisplay:10.37,2013-05-05 02:41:00,
2013-05-04 22:46:00,53.6,50.7,30.01,North,2,0.0,0.0,90,0.04,-RA,,0.33,WeatherDisplay:10.37,2013-05-05 02:46:00,
2013-05-04 22:51:00,53.5,50.6,30.01,North,2,2.3,2.3,90,0.05,-RA,,0.34,WeatherDisplay:10.37,2013-05-05 02:51:00,
2013-05-04 22:56:00,53.5,50.6,30.01,North,2,4.0,4.0,90,0.05,-RA,,0.35,WeatherDisplay:10.37,2013-05-05 02:56:00,
2013-05-04 23:01:00,53.5,50.6,30.01,North,2,4.0,4.0,90,0.06,-RA,,0.36,WeatherDisplay:10.37,2013-05-05 03:01:00,
2013-05-04 23:06:00,53.5,50.6,30.00,North,2,2.3,2.3,90,0.06,RA,,0.36,WeatherDisplay:10.37,2013-05-05 03:06:00,
2013-05-04 23:11:00,53.5,50.6,30.00,North,2,4.0,4.0,90,0.07,RA,,0.37,WeatherDisplay:10.37,2013-05-05 03:11:00,
2013-05-04 23:16:00,53.5,50.6,30.00,North,2,3.5,3.5,90,0.07,RA,,0.38,WeatherDisplay:10.37,2013-05-05 03:16:00,
2013-05-04 23:21:00,53.5,50.6,30.00,North,2,4.0,4.0,90,0.07,RA,,0.40,WeatherDisplay:10.37,2013-05-05 03:21:00,
2013-05-04 23:26:00,53.4,50.5,30.00,North,7,4.0,4.0,90,0.08,RA,,0.40,WeatherDisplay:10.37,2013-05-05 03:26:00,
2013-05-04 23:31:00,53.4,50.5,30.00,North,7,2.3,0.0,90,0.09,RA,,0.41,WeatherDisplay:10.37,2013-05-05 03:31:00,
2013-05-04 23:36:00,53.4,50.5,30.00,North,7,3.5,3.5,90,0.09,RA,,0.41,WeatherDisplay:10.37,2013-05-05 03:36:00,
2013-05-04 23:41:00,53.3,50.4,30.00,North,7,3.5,3.5,90,0.09,RA,,0.42,WeatherDisplay:10.37,2013-05-05 03:41:00,
2013-05-04 23:46:00,53.3,50.4,29.99,North,7,5.0,5.0,90,0.09,RA,,0.42,WeatherDisplay:10.37,2013-05-05 03:46:00,
2013-05-04 23:51:00,53.3,50.4,29.99,North,7,4.0,4.0,90,0.08,OVC,,0.42,WeatherDisplay:10.37,2013-05-05 03:51:00,
2013-05-04 23:56:00,53.3,50.4,29.99,North,7,4.6,4.6,90,0.08,RA,,0.43,WeatherDisplay:10.37,2013-05-05 03:56:00,